createdAt,value
2019-01-03T00:02:47.475Z,98807.20
2019-01-03T00:05:34.905Z,98799.71
2019-01-03T00:08:23.677Z,98800.10
2019-01-03T00:11:10.818Z,98809.81
2019-01-03T00:13:58.098Z,98809.36
2019-01-03T00:16:53.978Z,98811.98
2019-01-03T00:19:36.602Z,98814.28
2019-01-03T00:22:25.181Z,98812.51
2019-01-03T00:25:12.482Z,98820.37
2019-01-03T00:27:54.859Z,98819.39
2019-01-03T00:30:53.027Z,98824.63
2019-01-03T00:33:40.152Z,98821.23
2019-01-03T00:36:27.297Z,98826.55
2019-01-03T00:39:07.609Z,98825.30
2019-01-03T00:42:01.944Z,98836.19
2019-01-03T00:45:02.390Z,98832.78
2019-01-03T00:48:02.568Z,98833.31
2019-01-03T00:51:03.362Z,98845.05
2019-01-03T00:53:50.267Z,98841.82
2019-01-03T00:56:36.819Z,98834.87
2019-01-03T00:59:30.387Z,98840.72
2019-01-03T01:02:18.834Z,98840.72
2019-01-03T01:05:05.714Z,98847.73
2019-01-03T01:07:52.847Z,98850.04
2019-01-03T01:10:35.469Z,98863.08
2019-01-03T01:13:22.816Z,98874.42
2019-01-03T01:16:14.264Z,98879.02
2019-01-03T01:19:05.147Z,98876.33
2019-01-03T01:21:56.368Z,98885.58
2019-01-03T01:24:41.027Z,98878.50
2019-01-03T01:27:21.512Z,98881.97
2019-01-03T01:30:15.686Z,98884.52
2019-01-03T01:33:19.066Z,98885.91
2019-01-03T01:36:10.392Z,98885.12
2019-01-03T01:38:52.296Z,98881.37
2019-01-03T01:41:43.624Z,98886.82
2019-01-03T01:44:32.151Z,98886.89
2019-01-03T01:47:23.099Z,98884.48
2019-01-03T01:50:02.488Z,98886.31
2019-01-03T01:52:56.531Z,98897.33
2019-01-03T01:55:39.924Z,98893.00
2019-01-03T01:58:34.200Z,98891.77
2019-01-03T02:01:26.589Z,98894.91
2019-01-03T02:04:21.945Z,98898.76
2019-01-03T02:07:10.354Z,98888.02
2019-01-03T02:10:11.024Z,98897.72
2019-01-03T02:12:54.572Z,98897.27
2019-01-03T02:15:43.008Z,98892.48
2019-01-03T02:18:30.166Z,98889.07
2019-01-03T02:21:36.033Z,98892.80
2019-01-03T02:24:30.374Z,98897.06
2019-01-03T02:27:20.653Z,98891.42
2019-01-03T02:30:15.296Z,98893.19
2019-01-03T02:33:04.438Z,98899.42
2019-01-03T02:35:51.964Z,98894.76
2019-01-03T02:38:42.197Z,98897.06
2019-01-03T02:41:39.517Z,98901.13
2019-01-03T02:44:26.529Z,98901.13
2019-01-03T02:47:24.066Z,98898.37
2019-01-03T02:50:18.831Z,98902.23
2019-01-03T02:53:10.218Z,98895.36
2019-01-03T02:55:56.385Z,98902.23
2019-01-03T02:58:40.254Z,98895.61
2019-01-03T03:01:27.584Z,98880.94
2019-01-03T03:04:25.400Z,98894.36
2019-01-03T03:07:08.526Z,98896.14
2019-01-03T03:09:55.666Z,98894.44
2019-01-03T03:12:53.139Z,98895.61
2019-01-03T03:15:41.597Z,98898.11
2019-01-03T03:18:29.743Z,98904.00
2019-01-03T03:21:16.543Z,98897.20
2019-01-03T03:23:56.397Z,98898.90
2019-01-03T03:26:47.679Z,98903.22
2019-01-03T03:29:28.831Z,98903.22
2019-01-03T03:32:35.220Z,98899.75
2019-01-03T03:35:26.732Z,98906.51
2019-01-03T03:38:13.654Z,98905.06
2019-01-03T03:41:05.302Z,98902.38
2019-01-03T03:44:02.792Z,98903.81
2019-01-03T03:46:56.646Z,98911.09
2019-01-03T03:49:43.783Z,98899.17
2019-01-03T03:52:35.396Z,98900.81
2019-01-03T03:55:26.842Z,98902.84
2019-01-03T03:58:27.133Z,98894.25
2019-01-03T04:01:13.915Z,98894.78
2019-01-03T04:04:11.355Z,98898.59
2019-01-03T04:07:08.598Z,98891.44
2019-01-03T04:10:02.016Z,98889.88
2019-01-03T04:12:47.921Z,98883.77
2019-01-03T04:15:48.338Z,98884.10
2019-01-03T04:18:32.192Z,98870.46
2019-01-03T04:21:29.888Z,98867.45
2019-01-03T04:24:18.417Z,98874.73
2019-01-03T04:27:01.638Z,98869.09
2019-01-03T04:29:59.203Z,98871.92
2019-01-03T04:32:48.460Z,98876.52
2019-01-03T04:35:42.437Z,98875.02
2019-01-03T04:38:26.979Z,98880.19
2019-01-03T04:41:14.139Z,98885.30
2019-01-03T04:44:00.892Z,98884.25
2019-01-03T04:46:52.388Z,98885.82
2019-01-03T04:49:40.900Z,98895.52
2019-01-03T04:52:44.483Z,98890.93
2019-01-03T04:55:51.178Z,98890.61
2019-01-03T04:58:39.659Z,98899.05
2019-01-03T05:02:02.808Z,98900.95
2019-01-03T05:04:43.298Z,98901.15
2019-01-03T05:07:25.756Z,98909.00
2019-01-03T05:10:14.228Z,98909.27
2019-01-03T05:13:03.159Z,98906.98
2019-01-03T05:15:50.274Z,98907.24
2019-01-03T05:18:45.046Z,98911.05
2019-01-03T05:21:32.506Z,98907.24
2019-01-03T05:24:19.667Z,98912.42
2019-01-03T05:27:09.022Z,98913.86
2019-01-03T05:30:03.199Z,98916.09
2019-01-03T05:32:54.508Z,98914.91
2019-01-03T05:35:54.749Z,98920.88
2019-01-03T05:38:48.327Z,98927.23
2019-01-03T05:41:36.836Z,98924.81
2019-01-03T05:44:28.229Z,98927.56
2019-01-03T05:47:15.192Z,98932.34
2019-01-03T05:50:03.657Z,98933.39
2019-01-03T05:52:45.759Z,98932.73
2019-01-03T05:55:49.257Z,98935.03
2019-01-03T05:58:39.911Z,98930.25
2019-01-03T06:01:46.649Z,98939.16
2019-01-03T06:04:29.326Z,98946.04
2019-01-03T06:07:16.226Z,98944.66
2019-01-03T06:10:07.791Z,98947.16
2019-01-03T06:12:51.218Z,98948.85
2019-01-03T06:15:35.095Z,98949.90
2019-01-03T06:18:22.114Z,98956.39
2019-01-03T06:21:09.399Z,98949.17
2019-01-03T06:23:56.910Z,98944.29
2019-01-03T06:26:43.758Z,98951.98
2019-01-03T06:29:31.029Z,98958.34
2019-01-03T06:32:19.460Z,98962.17
2019-01-03T06:35:06.455Z,98964.44
2019-01-03T06:37:53.473Z,98968.52
2019-01-03T06:40:40.934Z,98974.55
2019-01-03T06:43:35.537Z,98971.53
2019-01-03T06:46:36.247Z,98966.75
2019-01-03T06:49:33.737Z,98974.73
2019-01-03T06:52:22.250Z,98973.56
2019-01-03T06:55:16.592Z,98977.41
2019-01-03T06:58:04.695Z,98976.17
2019-01-03T07:00:51.721Z,98985.59
2019-01-03T07:03:58.444Z,98986.38
2019-01-03T07:07:05.105Z,98980.99
2019-01-03T07:10:11.609Z,98980.80
2019-01-03T07:12:58.552Z,98975.05
2019-01-03T07:15:48.246Z,98983.37
2019-01-03T07:18:39.731Z,98984.28
2019-01-03T07:21:28.290Z,98981.91
2019-01-03T07:24:25.510Z,98987.02
2019-01-03T07:27:18.375Z,98985.71
2019-01-03T07:30:12.851Z,98993.91
2019-01-03T07:32:59.832Z,99003.77
2019-01-03T07:36:03.438Z,98999.33
2019-01-03T07:38:46.154Z,99009.04
2019-01-03T07:41:33.419Z,99010.59
2019-01-03T07:44:34.083Z,99017.81
2019-01-03T07:47:30.063Z,99018.45
2019-01-03T07:50:13.163Z,99027.44
2019-01-03T07:53:00.387Z,99015.80
2019-01-03T07:55:47.319Z,99023.84
2019-01-03T07:58:41.797Z,99024.76
2019-01-03T08:01:39.357Z,99030.33
2019-01-03T08:04:26.267Z,99037.00
2019-01-03T08:07:11.333Z,99033.07
2019-01-03T08:10:12.152Z,99035.50
2019-01-03T08:12:59.051Z,99038.58
2019-01-03T08:15:47.732Z,99044.39
2019-01-03T08:18:39.524Z,99037.33
2019-01-03T08:21:28.096Z,99034.50
2019-01-03T08:24:25.675Z,99036.78
2019-01-03T08:27:12.913Z,99037.35
2019-01-03T08:30:04.394Z,99043.78
2019-01-03T08:32:55.037Z,99055.45
2019-01-03T08:35:44.552Z,99044.02
2019-01-03T08:38:35.763Z,99029.02
2019-01-03T08:41:26.598Z,99026.19
2019-01-03T08:44:24.519Z,99026.58
2019-01-03T08:47:13.089Z,99024.50
2019-01-03T08:50:01.534Z,99023.25
2019-01-03T08:52:58.997Z,99024.26
2019-01-03T08:55:55.102Z,99020.67
2019-01-03T08:58:33.748Z,99023.80
2019-01-03T09:01:25.100Z,99029.95
2019-01-03T09:04:12.829Z,99027.09
2019-01-03T09:07:10.322Z,99029.77
2019-01-03T09:09:57.525Z,99037.97
2019-01-03T09:12:50.204Z,99034.26
2019-01-03T09:15:38.670Z,99036.20
2019-01-03T09:18:25.730Z,99036.03
2019-01-03T09:21:23.403Z,99033.41
2019-01-03T09:24:16.455Z,99032.41
2019-01-03T09:27:16.873Z,99038.13
2019-01-03T09:30:03.549Z,99034.20
2019-01-03T09:32:50.721Z,99046.84
2019-01-03T09:35:37.970Z,99044.91
2019-01-03T09:38:35.396Z,99040.41
2019-01-03T09:41:23.999Z,99041.78
2019-01-03T09:44:14.720Z,99030.91
2019-01-03T09:46:44.137Z,99030.89
2019-01-03T09:49:13.564Z,99016.16
2019-01-03T09:51:42.990Z,99015.05
2019-01-03T09:54:12.433Z,99021.48
2019-01-03T09:56:41.861Z,99027.13
2019-01-03T09:59:11.304Z,99025.62
2019-01-03T10:01:40.780Z,99029.62
2019-01-03T10:04:10.284Z,99030.92
2019-01-03T10:06:39.994Z,99029.68
2019-01-03T10:09:09.391Z,99031.06
2019-01-03T10:11:38.873Z,99022.00
2019-01-03T10:14:08.413Z,99027.33
2019-01-03T10:16:37.977Z,99024.63
2019-01-03T10:19:07.486Z,99022.08
2019-01-03T10:21:36.997Z,99019.12
2019-01-03T10:24:06.595Z,99013.16
2019-01-03T10:26:36.120Z,99010.34
2019-01-03T10:29:05.631Z,99001.36
2019-01-03T10:31:35.090Z,98994.66
2019-01-03T10:34:04.631Z,98994.20
2019-01-03T10:36:34.105Z,98992.03
2019-01-03T10:39:04.935Z,98992.76
2019-01-03T10:41:34.624Z,98996.63
2019-01-03T10:44:04.149Z,98994.07
2019-01-03T10:46:33.603Z,98987.97
2019-01-03T10:49:03.008Z,98982.80
2019-01-03T10:51:32.585Z,98985.42
2019-01-03T10:54:02.010Z,98980.83
2019-01-03T10:56:31.525Z,98970.34
2019-01-03T10:59:01.116Z,98970.41
2019-01-03T11:01:30.686Z,98967.14
2019-01-03T11:04:00.194Z,98955.67
2019-01-03T11:06:29.634Z,98960.78
2019-01-03T11:08:59.144Z,98955.06
2019-01-03T11:11:28.666Z,98978.44
2019-01-03T11:13:58.082Z,98980.14
2019-01-03T11:16:27.853Z,98970.63
2019-01-03T11:18:57.277Z,98962.88
2019-01-03T11:21:26.785Z,98958.30
2019-01-03T11:23:56.199Z,98950.77
2019-01-03T11:26:25.707Z,98947.66
2019-01-03T11:28:55.264Z,98944.96
2019-01-03T11:31:24.907Z,98938.93
2019-01-03T11:33:54.323Z,98937.13
2019-01-03T11:36:23.931Z,98919.33
2019-01-03T11:38:53.415Z,98914.62
2019-01-03T11:41:22.915Z,98914.92
2019-01-03T11:43:52.324Z,98924.04
2019-01-03T11:46:21.779Z,98912.25
2019-01-03T11:48:51.357Z,98922.03
2019-01-03T11:51:21.510Z,98913.80
2019-01-03T11:53:50.901Z,98914.03
2019-01-03T11:56:20.379Z,98895.38
2019-01-03T11:58:49.824Z,98895.97
2019-01-03T12:01:19.213Z,98882.80
2019-01-03T12:03:48.679Z,98872.72
2019-01-03T12:06:18.066Z,98874.70
2019-01-03T12:08:47.475Z,98861.94
2019-01-03T12:11:16.944Z,98863.61
2019-01-03T12:13:46.450Z,98858.88
2019-01-03T12:16:15.968Z,98862.25
2019-01-03T12:18:45.442Z,98867.45
2019-01-03T12:21:14.863Z,98857.59
2019-01-03T12:23:44.304Z,98860.80
2019-01-03T12:26:13.767Z,98863.11
2019-01-03T12:28:43.211Z,98866.30
2019-01-03T12:31:12.603Z,98860.02
2019-01-03T12:33:42.032Z,98852.08
2019-01-03T12:36:11.516Z,98854.36
2019-01-03T12:38:40.928Z,98852.00
2019-01-03T12:41:10.357Z,98858.38
2019-01-03T12:43:39.758Z,98844.70
2019-01-03T12:46:09.332Z,98841.30
2019-01-03T12:48:38.738Z,98832.00
2019-01-03T12:51:08.161Z,98844.84
2019-01-03T12:53:37.641Z,98842.89
2019-01-03T12:56:07.176Z,98845.59
2019-01-03T12:58:36.599Z,98843.07
2019-01-03T13:01:06.099Z,98836.00
2019-01-03T13:03:35.612Z,98833.11
2019-01-03T13:06:04.969Z,98837.20
2019-01-03T13:08:34.525Z,98841.01
2019-01-03T13:11:04.067Z,98843.83
2019-01-03T13:13:33.526Z,98842.37
2019-01-03T13:16:03.406Z,98844.78
2019-01-03T13:18:32.818Z,98840.97
2019-01-03T13:21:02.216Z,98843.49
2019-01-03T13:23:31.753Z,98837.30
2019-01-03T13:26:01.235Z,98845.70
2019-01-03T13:28:30.820Z,98847.43
2019-01-03T13:31:00.378Z,98840.20
2019-01-03T13:33:29.865Z,98844.52
2019-01-03T13:35:59.352Z,98845.91
2019-01-03T13:38:28.810Z,98838.09
2019-01-03T13:41:00.805Z,98838.59
2019-01-03T13:43:30.348Z,98837.78
2019-01-03T13:45:59.877Z,98841.31
2019-01-03T13:48:29.326Z,98846.06
2019-01-03T13:50:59.102Z,98850.52
2019-01-03T13:53:28.785Z,98846.49
2019-01-03T13:55:58.691Z,98838.53
2019-01-03T13:58:28.108Z,98853.14
2019-01-03T14:00:57.541Z,98849.94
2019-01-03T14:03:26.963Z,98841.81
2019-01-03T14:05:56.393Z,98842.13
2019-01-03T14:08:25.792Z,98841.89
2019-01-03T14:10:55.214Z,98845.83
2019-01-03T14:13:24.802Z,98838.88
2019-01-03T14:15:54.284Z,98845.57
2019-01-03T14:18:23.763Z,98833.60
2019-01-03T14:20:53.238Z,98834.48
2019-01-03T14:23:22.656Z,98837.89
2019-01-03T14:25:52.079Z,98826.75
2019-01-03T14:28:21.488Z,98825.38
2019-01-03T14:30:50.912Z,98829.31
2019-01-03T14:33:20.366Z,98823.09
2019-01-03T14:35:50.817Z,98823.00
2019-01-03T14:38:20.562Z,98820.00
2019-01-03T14:40:50.192Z,98823.85
2019-01-03T14:43:19.594Z,98815.75
2019-01-03T14:45:49.110Z,98818.59
2019-01-03T14:48:18.606Z,98821.95
2019-01-03T14:50:48.216Z,98811.42
2019-01-03T14:53:17.763Z,98810.68
2019-01-03T14:55:47.427Z,98807.34
2019-01-03T14:58:17.085Z,98812.21
2019-01-03T15:00:46.540Z,98817.83
2019-01-03T15:03:16.068Z,98819.56
2019-01-03T15:05:45.660Z,98823.25
2019-01-03T15:08:15.104Z,98815.74
2019-01-03T15:10:44.559Z,98821.85
2019-01-03T15:13:14.064Z,98828.08
2019-01-03T15:15:43.567Z,98823.48
2019-01-03T15:18:13.218Z,98832.09
2019-01-03T15:20:43.625Z,98829.98
2019-01-03T15:23:13.144Z,98819.73
2019-01-03T15:25:42.920Z,98822.49
2019-01-03T15:28:13.308Z,98818.00
2019-01-03T15:30:42.731Z,98819.28
2019-01-03T15:33:12.287Z,98815.56
2019-01-03T15:35:41.784Z,98817.05
2019-01-03T15:38:11.348Z,98807.18
2019-01-03T15:40:40.897Z,98822.77
2019-01-03T15:43:10.438Z,98818.89
2019-01-03T15:45:39.904Z,98824.07
2019-01-03T15:48:09.532Z,98830.48
2019-01-03T15:50:39.094Z,98831.91
2019-01-03T15:53:08.637Z,98830.89
2019-01-03T15:55:38.144Z,98837.69
2019-01-03T15:58:07.616Z,98836.37
2019-01-03T16:00:37.147Z,98841.67
2019-01-03T16:03:06.574Z,98838.11
2019-01-03T16:05:35.987Z,98844.41
2019-01-03T16:08:05.458Z,98846.75
2019-01-03T16:10:35.009Z,98849.58
2019-01-03T16:13:04.471Z,98850.73
2019-01-03T16:15:34.292Z,98847.05
2019-01-03T16:18:03.876Z,98843.32
2019-01-03T16:20:33.382Z,98840.73
2019-01-03T16:23:02.903Z,98827.70
2019-01-03T16:25:32.382Z,98834.55
2019-01-03T16:28:01.784Z,98839.26
2019-01-03T16:30:31.220Z,98840.00
2019-01-03T16:33:00.672Z,98833.94
2019-01-03T16:35:30.425Z,98844.48
2019-01-03T16:37:59.850Z,98847.98
2019-01-03T16:40:29.306Z,98836.95
2019-01-03T16:42:58.754Z,98843.80
2019-01-03T16:45:28.259Z,98849.55
2019-01-03T16:47:57.681Z,98841.13
2019-01-03T16:50:27.214Z,98842.20
2019-01-03T16:52:56.743Z,98849.33
2019-01-03T16:55:26.333Z,98847.72
2019-01-03T16:57:55.782Z,98856.70
2019-01-03T17:00:25.288Z,98847.04
2019-01-03T17:02:54.839Z,98851.03
2019-01-03T17:05:24.400Z,98840.95
2019-01-03T17:07:53.907Z,98840.81
2019-01-03T17:10:23.397Z,98841.73
2019-01-03T17:12:52.863Z,98831.77
2019-01-03T17:15:22.778Z,98836.78
2019-01-03T17:17:52.465Z,98839.58
2019-01-03T17:20:21.969Z,98836.06
2019-01-03T17:22:51.460Z,98832.64
2019-01-03T17:25:20.952Z,98836.64
2019-01-03T17:27:50.438Z,98837.84
2019-01-03T17:30:19.877Z,98839.16
2019-01-03T17:32:49.352Z,98840.81
2019-01-03T17:35:18.853Z,98842.73
2019-01-03T17:37:48.373Z,98846.64
2019-01-03T17:40:17.925Z,98856.84
2019-01-03T17:42:47.777Z,98849.17
2019-01-03T17:45:17.293Z,98845.16
2019-01-03T17:47:46.709Z,98841.98
2019-01-03T17:50:16.254Z,98845.88
2019-01-03T17:52:45.704Z,98850.05
2019-01-03T17:55:15.317Z,98853.48
2019-01-03T17:57:44.823Z,98846.52
2019-01-03T18:00:20.211Z,98855.63
2019-01-03T18:02:49.913Z,98861.95
2019-01-03T18:05:19.300Z,98864.66
2019-01-03T18:07:49.116Z,98861.75
2019-01-03T18:10:18.589Z,98865.89
2019-01-03T18:12:48.304Z,98862.86
2019-01-03T18:15:18.326Z,98867.13
2019-01-03T18:17:47.790Z,98867.11
2019-01-03T18:20:18.233Z,98866.72
2019-01-03T18:22:47.637Z,98871.61
2019-01-03T18:25:17.215Z,98856.86
2019-01-03T18:27:46.750Z,98860.89
2019-01-03T18:30:16.194Z,98869.41
2019-01-03T18:32:46.186Z,98871.86
2019-01-03T18:35:15.754Z,98875.83
2019-01-03T18:37:45.202Z,98867.80
2019-01-03T18:40:16.249Z,98862.22
2019-01-03T18:42:46.682Z,98854.22
2019-01-03T18:45:19.462Z,98842.59
2019-01-03T18:47:48.895Z,98849.33
2019-01-03T18:50:19.037Z,98846.09
2019-01-03T18:52:48.769Z,98857.99
2019-01-03T18:55:18.345Z,98877.89
2019-01-03T18:57:47.906Z,98888.70
2019-01-03T19:00:17.623Z,98883.00
2019-01-03T19:02:48.112Z,98887.34
2019-01-03T19:05:17.798Z,98882.84
2019-01-03T19:07:49.655Z,98880.84
2019-01-03T19:10:20.948Z,98893.16
2019-01-03T19:12:50.407Z,98899.34
2019-01-03T19:15:20.049Z,98896.52
2019-01-03T19:17:49.621Z,98891.36
2019-01-03T19:20:19.877Z,98887.59
2019-01-03T19:22:49.385Z,98877.08
2019-01-03T19:25:19.528Z,98874.25
2019-01-03T19:27:49.422Z,98881.22
2019-01-03T19:30:19.144Z,98867.95
2019-01-03T19:32:48.588Z,98851.03
2019-01-03T19:35:18.262Z,98849.87
2019-01-03T19:37:47.972Z,98856.23
2019-01-03T19:40:17.563Z,98854.02
2019-01-03T19:42:47.744Z,98850.86
2019-01-03T19:45:17.427Z,98847.59
2019-01-03T19:47:47.007Z,98859.20
2019-01-03T19:50:18.891Z,98861.70
2019-01-03T19:52:48.672Z,98866.90
2019-01-03T19:55:18.320Z,98861.22
2019-01-03T19:57:48.208Z,98856.53
2019-01-03T20:00:20.186Z,98870.09
2019-01-03T20:02:49.798Z,98865.44
2019-01-03T20:05:19.428Z,98865.20
2019-01-03T20:07:49.495Z,98860.19
2019-01-03T20:10:19.103Z,98855.03
2019-01-03T20:12:48.799Z,98845.84
2019-01-03T20:15:18.437Z,98853.95
2019-01-03T20:17:47.989Z,98850.05
2019-01-03T20:20:17.567Z,98848.22
2019-01-03T20:22:47.111Z,98854.11
2019-01-03T20:25:16.940Z,98848.82
2019-01-03T20:27:46.605Z,98848.31
2019-01-03T20:30:16.120Z,98851.36
2019-01-03T20:32:45.724Z,98858.30
2019-01-03T20:35:15.169Z,98849.11
2019-01-03T20:37:44.752Z,98846.90
2019-01-03T20:40:14.650Z,98854.80
2019-01-03T20:42:44.293Z,98852.98
2019-01-03T20:45:14.015Z,98856.34
2019-01-03T20:47:43.670Z,98858.58
2019-01-03T20:50:13.263Z,98854.11
2019-01-03T20:52:42.916Z,98850.99
2019-01-03T20:55:12.547Z,98851.03
2019-01-03T20:57:42.164Z,98839.56
2019-01-03T21:00:13.517Z,98843.28
2019-01-03T21:02:43.057Z,98845.51
2019-01-03T21:05:12.665Z,98838.94
2019-01-03T21:07:42.119Z,98846.01
2019-01-03T21:10:12.664Z,98840.30
2019-01-03T21:12:42.470Z,98844.38
2019-01-03T21:15:17.577Z,98847.66
2019-01-03T21:17:47.056Z,98852.41
2019-01-03T21:20:17.614Z,98867.77
2019-01-03T21:22:47.242Z,98871.13
2019-01-03T21:25:16.793Z,98872.41
2019-01-03T21:27:46.235Z,98876.62
2019-01-03T21:30:18.166Z,98892.05
2019-01-03T21:32:47.668Z,98883.38
2019-01-03T21:35:17.231Z,98890.64
2019-01-03T21:37:46.648Z,98886.48
2019-01-03T21:40:16.306Z,98881.69
2019-01-03T21:42:45.923Z,98885.05
2019-01-03T21:45:15.370Z,98879.48
2019-01-03T21:47:44.846Z,98882.72
2019-01-03T21:50:14.349Z,98889.67
2019-01-03T21:52:43.879Z,98893.64
2019-01-03T21:55:13.426Z,98893.36
2019-01-03T21:57:42.957Z,98896.08
2019-01-03T22:00:13.221Z,98894.49
2019-01-03T22:02:42.964Z,98896.30
2019-01-03T22:05:12.477Z,98887.90
2019-01-03T22:07:41.978Z,98893.72
2019-01-03T22:10:11.737Z,98899.83
2019-01-03T22:12:41.268Z,98900.36
2019-01-03T22:15:11.070Z,98888.45
2019-01-03T22:17:40.545Z,98889.08
2019-01-03T22:20:10.719Z,98892.66
2019-01-03T22:22:40.219Z,98889.48
2019-01-03T22:25:09.770Z,98892.16
2019-01-03T22:27:39.230Z,98888.95
2019-01-03T22:30:10.307Z,98890.95
2019-01-03T22:32:39.755Z,98900.67
2019-01-03T22:35:09.315Z,98897.47
2019-01-03T22:37:38.765Z,98901.06
2019-01-03T22:40:08.905Z,98907.45
2019-01-03T22:42:38.389Z,98907.96
2019-01-03T22:45:09.274Z,98911.45
2019-01-03T22:47:38.840Z,98909.61
2019-01-03T22:50:09.336Z,98901.86
2019-01-03T22:52:38.786Z,98902.07
2019-01-03T22:55:08.340Z,98899.92
2019-01-03T22:57:37.743Z,98895.85
2019-01-03T23:00:23.912Z,98901.96
2019-01-03T23:02:53.405Z,98897.73
2019-01-03T23:05:22.907Z,98892.56
2019-01-03T23:07:52.387Z,98894.43
2019-01-03T23:10:21.946Z,98880.14
2019-01-03T23:12:51.539Z,98885.77
2019-01-03T23:15:21.044Z,98885.06
2019-01-03T23:17:50.608Z,98891.22
2019-01-03T23:20:20.114Z,98896.36
2019-01-03T23:22:49.644Z,98894.66
2019-01-03T23:25:19.067Z,98888.06
2019-01-03T23:27:48.554Z,98898.12
2019-01-03T23:30:18.039Z,98915.02
2019-01-03T23:32:47.566Z,98916.61
2019-01-03T23:35:17.075Z,98912.86
2019-01-03T23:37:46.485Z,98910.03
2019-01-03T23:40:16.007Z,98913.52
2019-01-03T23:42:45.396Z,98921.44
2019-01-03T23:45:22.815Z,98912.92
2019-01-03T23:47:54.538Z,98908.14
2019-01-03T23:50:29.289Z,98919.23
2019-01-03T23:52:58.761Z,98909.97
2019-01-03T23:55:29.323Z,98906.41
2019-01-03T23:57:58.783Z,98912.32
